sensor_id;sensor_type;location;lat;lon;timestamp;temperature;humidity
5842;DHT22;2947;52.276;9.946;2022-10-16T00:01:23;14.60;1.00
5842;DHT22;2947;52.276;9.946;2022-10-16T00:03:50;14.50;1.00
5842;DHT22;2947;52.276;9.946;2022-10-16T00:06:18;14.50;1.00
5842;DHT22;2947;52.276;9.946;2022-10-16T00:08:45;15.00;1.00
5842;DHT22;2947;52.276;9.946;2022-10-16T00:13:41;14.50;1.00
5842;DHT22;2947;52.276;9.946;2022-10-16T00:16:09;14.40;1.00
5842;DHT22;2947;52.276;9.946;2022-10-16T00:18:35;14.40;1.00
5842;DHT22;2947;52.276;9.946;2022-10-16T00:21:07;14.40;1.00
5842;DHT22;2947;52.276;9.946;2022-10-16T00:23:35;14.30;1.00
5842;DHT22;2947;52.276;9.946;2022-10-16T00:26:04;14.30;1.00
5842;DHT22;2947;52.276;9.946;2022-10-16T00:28:32;14.20;1.00
5842;DHT22;2947;52.276;9.946;2022-10-16T00:30:58;14.20;9.30
5842;DHT22;2947;52.276;9.946;2022-10-16T00:33:24;14.20;16.50
5842;DHT22;2947;52.276;9.946;2022-10-16T00:35:50;14.10;21.50
5842;DHT22;2947;52.276;9.946;2022-10-16T00:38:16;14.10;32.20
5842;DHT22;2947;52.276;9.946;2022-10-16T00:40:42;14.10;41.30
5842;DHT22;2947;52.276;9.946;2022-10-16T00:43:14;14.10;45.90
5842;DHT22;2947;52.276;9.946;2022-10-16T00:45:59;14.00;47.50
5842;DHT22;2947;52.276;9.946;2022-10-16T00:48:26;14.10;47.00
5842;DHT22;2947;52.276;9.946;2022-10-16T00:50:52;14.10;53.30
5842;DHT22;2947;52.276;9.946;2022-10-16T00:53:18;14.10;61.30
5842;DHT22;2947;52.276;9.946;2022-10-16T00:55:44;14.10;59.50
5842;DHT22;2947;52.276;9.946;2022-10-16T00:58:11;14.10;62.60
5842;DHT22;2947;52.276;9.946;2022-10-16T01:00:37;14.10;74.30
5842;DHT22;2947;52.276;9.946;2022-10-16T01:03:21;14.10;84.10
5842;DHT22;2947;52.276;9.946;2022-10-16T01:06:18;14.10;83.40
5842;DHT22;2947;52.276;9.946;2022-10-16T01:09:09;14.10;83.70
5842;DHT22;2947;52.276;9.946;2022-10-16T01:12:16;14.10;92.00
5842;DHT22;2947;52.276;9.946;2022-10-16T01:14:52;14.00;94.20
5842;DHT22;2947;52.276;9.946;2022-10-16T01:17:41;14.00;94.80
5842;DHT22;2947;52.276;9.946;2022-10-16T01:20:26;14.00;99.10
5842;DHT22;2947;52.276;9.946;2022-10-16T01:26:08;14.00;99.60
5842;DHT22;2947;52.276;9.946;2022-10-16T01:31:25;13.90;99.90
5842;DHT22;2947;52.276;9.946;2022-10-16T01:34:00;13.90;99.90
5842;DHT22;2947;52.276;9.946;2022-10-16T01:36:37;13.80;99.90
5842;DHT22;2947;52.276;9.946;2022-10-16T01:39:06;13.80;99.90
5842;DHT22;2947;52.276;9.946;2022-10-16T01:41:48;13.80;99.90
5842;DHT22;2947;52.276;9.946;2022-10-16T01:44:25;13.80;99.90
5842;DHT22;2947;52.276;9.946;2022-10-16T01:46:54;13.80;99.90
5842;DHT22;2947;52.276;9.946;2022-10-16T01:49:23;13.80;99.90
5842;DHT22;2947;52.276;9.946;2022-10-16T01:51:54;13.80;99.90
5842;DHT22;2947;52.276;9.946;2022-10-16T01:54:23;13.80;99.90
5842;DHT22;2947;52.276;9.946;2022-10-16T01:56:51;13.80;99.90
5842;DHT22;2947;52.276;9.946;2022-10-16T01:59:20;13.80;99.90
5842;DHT22;2947;52.276;9.946;2022-10-16T02:01:52;13.80;99.90
5842;DHT22;2947;52.276;9.946;2022-10-16T02:04:32;13.80;99.90
5842;DHT22;2947;52.276;9.946;2022-10-16T02:07:00;13.70;99.90
5842;DHT22;2947;52.276;9.946;2022-10-16T02:09:26;13.70;99.90
5842;DHT22;2947;52.276;9.946;2022-10-16T02:11:57;13.80;99.90
5842;DHT22;2947;52.276;9.946;2022-10-16T02:14:25;13.80;99.90
5842;DHT22;2947;52.276;9.946;2022-10-16T02:16:51;14.10;99.90
5842;DHT22;2947;52.276;9.946;2022-10-16T02:19:18;13.80;99.90
5842;DHT22;2947;52.276;9.946;2022-10-16T02:21:57;13.80;99.90
5842;DHT22;2947;52.276;9.946;2022-10-16T02:24:43;13.90;99.90
5842;DHT22;2947;52.276;9.946;2022-10-16T02:32:48;13.90;99.90
5842;DHT22;2947;52.276;9.946;2022-10-16T02:35:17;13.90;99.90
5842;DHT22;2947;52.276;9.946;2022-10-16T02:37:44;13.90;99.90
5842;DHT22;2947;52.276;9.946;2022-10-16T02:40:11;13.90;99.90
5842;DHT22;2947;52.276;9.946;2022-10-16T02:42:39;13.90;99.90
5842;DHT22;2947;52.276;9.946;2022-10-16T02:45:07;13.90;99.90
5842;DHT22;2947;52.276;9.946;2022-10-16T02:47:34;13.90;97.90
5842;DHT22;2947;52.276;9.946;2022-10-16T02:50:00;13.80;95.90
5842;DHT22;2947;52.276;9.946;2022-10-16T02:52:26;13.80;95.80
5842;DHT22;2947;52.276;9.946;2022-10-16T02:54:52;13.80;94.40
5842;DHT22;2947;52.276;9.946;2022-10-16T02:57:18;14.60;99.90
5842;DHT22;2947;52.276;9.946;2022-10-16T02:59:44;13.80;99.90
5842;DHT22;2947;52.276;9.946;2022-10-16T03:02:10;13.80;99.90
5842;DHT22;2947;52.276;9.946;2022-10-16T03:04:36;13.80;99.90
5842;DHT22;2947;52.276;9.946;2022-10-16T03:07:02;13.80;99.90
5842;DHT22;2947;52.276;9.946;2022-10-16T03:09:28;13.80;99.90
5842;DHT22;2947;52.276;9.946;2022-10-16T03:11:54;13.80;99.90
5842;DHT22;2947;52.276;9.946;2022-10-16T03:14:19;13.70;99.90
5842;DHT22;2947;52.276;9.946;2022-10-16T03:16:45;13.70;99.90
5842;DHT22;2947;52.276;9.946;2022-10-16T03:19:11;13.70;99.90
5842;DHT22;2947;52.276;9.946;2022-10-16T03:21:37;13.60;99.90
5842;DHT22;2947;52.276;9.946;2022-10-16T03:24:02;13.60;99.90
5842;DHT22;2947;52.276;9.946;2022-10-16T03:26:28;13.60;99.90
5842;DHT22;2947;52.276;9.946;2022-10-16T03:28:54;13.50;99.90
5842;DHT22;2947;52.276;9.946;2022-10-16T03:31:19;13.60;99.90
5842;DHT22;2947;52.276;9.946;2022-10-16T03:33:45;13.60;99.90
5842;DHT22;2947;52.276;9.946;2022-10-16T03:36:11;13.60;99.90
5842;DHT22;2947;52.276;9.946;2022-10-16T03:38:37;13.60;99.90
5842;DHT22;2947;52.276;9.946;2022-10-16T03:41:02;13.60;99.90
5842;DHT22;2947;52.276;9.946;2022-10-16T03:43:29;13.60;99.90
5842;DHT22;2947;52.276;9.946;2022-10-16T03:45:54;13.50;99.90
5842;DHT22;2947;52.276;9.946;2022-10-16T03:48:20;13.70;99.90
5842;DHT22;2947;52.276;9.946;2022-10-16T03:50:46;13.40;99.90
5842;DHT22;2947;52.276;9.946;2022-10-16T03:53:14;13.40;99.90
5842;DHT22;2947;52.276;9.946;2022-10-16T03:55:44;13.40;99.90
5842;DHT22;2947;52.276;9.946;2022-10-16T03:58:10;13.30;99.90
5842;DHT22;2947;52.276;9.946;2022-10-16T04:00:43;13.30;99.90
5842;DHT22;2947;52.276;9.946;2022-10-16T04:03:09;13.20;99.90
5842;DHT22;2947;52.276;9.946;2022-10-16T04:05:35;13.20;99.90
5842;DHT22;2947;52.276;9.946;2022-10-16T04:08:01;13.20;99.90
5842;DHT22;2947;52.276;9.946;2022-10-16T04:10:27;13.20;99.90
5842;DHT22;2947;52.276;9.946;2022-10-16T04:12:52;13.60;99.90
5842;DHT22;2947;52.276;9.946;2022-10-16T04:15:21;13.10;99.90
5842;DHT22;2947;52.276;9.946;2022-10-16T04:17:48;13.00;99.90
5842;DHT22;2947;52.276;9.946;2022-10-16T04:20:13;13.00;99.90
5842;DHT22;2947;52.276;9.946;2022-10-16T04:22:39;13.00;99.90
5842;DHT22;2947;52.276;9.946;2022-10-16T04:25:05;13.00;99.90
5842;DHT22;2947;52.276;9.946;2022-10-16T04:27:31;13.00;99.90
5842;DHT22;2947;52.276;9.946;2022-10-16T04:30:00;12.90;99.90
5842;DHT22;2947;52.276;9.946;2022-10-16T04:32:26;12.90;99.90
5842;DHT22;2947;52.276;9.946;2022-10-16T04:34:53;12.90;99.90
5842;DHT22;2947;52.276;9.946;2022-10-16T04:37:19;12.90;99.90
5842;DHT22;2947;52.276;9.946;2022-10-16T04:39:48;12.90;99.90
5842;DHT22;2947;52.276;9.946;2022-10-16T04:42:14;13.00;99.90
5842;DHT22;2947;52.276;9.946;2022-10-16T04:44:40;12.90;99.90
5842;DHT22;2947;52.276;9.946;2022-10-16T04:47:05;12.90;99.90
5842;DHT22;2947;52.276;9.946;2022-10-16T04:49:31;13.00;99.90
5842;DHT22;2947;52.276;9.946;2022-10-16T04:51:57;13.00;99.90
5842;DHT22;2947;52.276;9.946;2022-10-16T04:54:22;13.00;99.90
5842;DHT22;2947;52.276;9.946;2022-10-16T04:56:48;13.00;99.90
5842;DHT22;2947;52.276;9.946;2022-10-16T04:59:16;13.00;99.90
5842;DHT22;2947;52.276;9.946;2022-10-16T05:01:43;13.10;99.90
5842;DHT22;2947;52.276;9.946;2022-10-16T05:04:09;13.20;99.90
5842;DHT22;2947;52.276;9.946;2022-10-16T05:06:37;13.10;99.90
5842;DHT22;2947;52.276;9.946;2022-10-16T05:09:07;13.20;99.90
5842;DHT22;2947;52.276;9.946;2022-10-16T05:11:33;13.20;99.90
5842;DHT22;2947;52.276;9.946;2022-10-16T05:13:59;13.20;99.90
5842;DHT22;2947;52.276;9.946;2022-10-16T05:16:26;13.70;99.90
5842;DHT22;2947;52.276;9.946;2022-10-16T05:18:52;13.30;99.90
5842;DHT22;2947;52.276;9.946;2022-10-16T05:21:18;13.30;99.90
5842;DHT22;2947;52.276;9.946;2022-10-16T05:23:44;13.30;99.90
5842;DHT22;2947;52.276;9.946;2022-10-16T05:26:10;13.30;99.90
5842;DHT22;2947;52.276;9.946;2022-10-16T05:28:36;13.30;99.90
5842;DHT22;2947;52.276;9.946;2022-10-16T05:31:09;13.30;99.90
5842;DHT22;2947;52.276;9.946;2022-10-16T05:33:35;13.20;99.90
5842;DHT22;2947;52.276;9.946;2022-10-16T05:36:05;13.30;99.90
5842;DHT22;2947;52.276;9.946;2022-10-16T05:38:36;13.30;99.90
5842;DHT22;2947;52.276;9.946;2022-10-16T05:41:03;13.30;99.90
5842;DHT22;2947;52.276;9.946;2022-10-16T05:43:29;13.20;99.90
5842;DHT22;2947;52.276;9.946;2022-10-16T05:45:57;13.20;99.90
5842;DHT22;2947;52.276;9.946;2022-10-16T05:48:24;13.40;99.90
5842;DHT22;2947;52.276;9.946;2022-10-16T05:51:05;13.20;99.90
5842;DHT22;2947;52.276;9.946;2022-10-16T05:53:33;13.20;99.90
5842;DHT22;2947;52.276;9.946;2022-10-16T05:56:02;13.30;99.90
5842;DHT22;2947;52.276;9.946;2022-10-16T05:58:30;13.30;99.90
5842;DHT22;2947;52.276;9.946;2022-10-16T06:01:12;13.20;99.90
5842;DHT22;2947;52.276;9.946;2022-10-16T06:03:39;13.30;99.90
5842;DHT22;2947;52.276;9.946;2022-10-16T06:06:19;13.30;99.90
5842;DHT22;2947;52.276;9.946;2022-10-16T06:08:49;13.30;99.90
5842;DHT22;2947;52.276;9.946;2022-10-16T06:11:20;13.20;99.90
5842;DHT22;2947;52.276;9.946;2022-10-16T06:13:55;13.30;99.90
5842;DHT22;2947;52.276;9.946;2022-10-16T06:16:22;13.20;99.90
5842;DHT22;2947;52.276;9.946;2022-10-16T06:18:50;13.20;99.90
5842;DHT22;2947;52.276;9.946;2022-10-16T06:21:19;13.20;99.90
5842;DHT22;2947;52.276;9.946;2022-10-16T06:23:46;13.10;99.90
5842;DHT22;2947;52.276;9.946;2022-10-16T06:26:14;13.10;99.90
5842;DHT22;2947;52.276;9.946;2022-10-16T06:28:42;13.20;99.90
5842;DHT22;2947;52.276;9.946;2022-10-16T06:31:09;13.20;99.90
5842;DHT22;2947;52.276;9.946;2022-10-16T06:33:37;13.10;99.90
5842;DHT22;2947;52.276;9.946;2022-10-16T06:36:05;13.20;99.90
5842;DHT22;2947;52.276;9.946;2022-10-16T06:38:36;13.10;99.90
5842;DHT22;2947;52.276;9.946;2022-10-16T06:41:03;13.20;99.90
5842;DHT22;2947;52.276;9.946;2022-10-16T06:43:29;13.20;99.90
5842;DHT22;2947;52.276;9.946;2022-10-16T06:46:02;13.20;99.90
5842;DHT22;2947;52.276;9.946;2022-10-16T06:48:29;13.20;99.90
5842;DHT22;2947;52.276;9.946;2022-10-16T06:51:04;13.20;99.90
5842;DHT22;2947;52.276;9.946;2022-10-16T06:53:34;13.30;99.90
5842;DHT22;2947;52.276;9.946;2022-10-16T06:56:11;13.30;99.90
5842;DHT22;2947;52.276;9.946;2022-10-16T06:58:38;13.30;99.90
5842;DHT22;2947;52.276;9.946;2022-10-16T07:01:05;13.40;99.90
5842;DHT22;2947;52.276;9.946;2022-10-16T07:03:32;13.40;99.90
5842;DHT22;2947;52.276;9.946;2022-10-16T07:06:04;13.50;99.90
5842;DHT22;2947;52.276;9.946;2022-10-16T07:08:35;13.70;99.90
5842;DHT22;2947;52.276;9.946;2022-10-16T07:11:04;13.80;99.90
5842;DHT22;2947;52.276;9.946;2022-10-16T07:13:35;13.80;99.90
5842;DHT22;2947;52.276;9.946;2022-10-16T07:16:10;14.10;99.90
5842;DHT22;2947;52.276;9.946;2022-10-16T07:18:37;14.10;99.90
5842;DHT22;2947;52.276;9.946;2022-10-16T07:21:13;14.20;99.90
5842;DHT22;2947;52.276;9.946;2022-10-16T07:23:54;14.30;99.90
5842;DHT22;2947;52.276;9.946;2022-10-16T07:26:23;14.40;99.90
5842;DHT22;2947;52.276;9.946;2022-10-16T07:28:49;14.50;99.90
5842;DHT22;2947;52.276;9.946;2022-10-16T07:31:17;14.60;99.90
5842;DHT22;2947;52.276;9.946;2022-10-16T07:33:45;14.70;99.90
5842;DHT22;2947;52.276;9.946;2022-10-16T07:36:12;14.80;99.90
5842;DHT22;2947;52.276;9.946;2022-10-16T07:38:38;14.90;99.90
5842;DHT22;2947;52.276;9.946;2022-10-16T07:41:06;14.90;99.90
5842;DHT22;2947;52.276;9.946;2022-10-16T07:43:33;15.00;99.90
5842;DHT22;2947;52.276;9.946;2022-10-16T07:45:59;15.00;99.90
5842;DHT22;2947;52.276;9.946;2022-10-16T07:48:31;15.00;99.90
5842;DHT22;2947;52.276;9.946;2022-10-16T07:50:59;15.10;99.90
5842;DHT22;2947;52.276;9.946;2022-10-16T07:53:25;15.20;99.90
5842;DHT22;2947;52.276;9.946;2022-10-16T07:55:52;15.30;99.90
5842;DHT22;2947;52.276;9.946;2022-10-16T07:58:17;15.50;99.90
5842;DHT22;2947;52.276;9.946;2022-10-16T08:00:43;15.50;99.90
5842;DHT22;2947;52.276;9.946;2022-10-16T08:03:09;15.60;99.90
5842;DHT22;2947;52.276;9.946;2022-10-16T08:05:35;15.60;99.90
5842;DHT22;2947;52.276;9.946;2022-10-16T08:08:01;15.60;99.90
5842;DHT22;2947;52.276;9.946;2022-10-16T08:10:28;15.60;99.90
5842;DHT22;2947;52.276;9.946;2022-10-16T08:12:54;15.70;99.90
5842;DHT22;2947;52.276;9.946;2022-10-16T08:15:20;15.90;99.90
5842;DHT22;2947;52.276;9.946;2022-10-16T08:18:00;16.10;99.90
5842;DHT22;2947;52.276;9.946;2022-10-16T08:20:28;16.90;99.90
5842;DHT22;2947;52.276;9.946;2022-10-16T08:22:54;16.30;99.90
5842;DHT22;2947;52.276;9.946;2022-10-16T08:25:21;16.20;99.90
5842;DHT22;2947;52.276;9.946;2022-10-16T08:27:48;16.10;99.90
5842;DHT22;2947;52.276;9.946;2022-10-16T08:30:14;16.20;99.90
5842;DHT22;2947;52.276;9.946;2022-10-16T08:32:40;16.20;99.90
5842;DHT22;2947;52.276;9.946;2022-10-16T08:35:11;16.30;99.90
5842;DHT22;2947;52.276;9.946;2022-10-16T08:37:37;16.20;99.90
5842;DHT22;2947;52.276;9.946;2022-10-16T08:40:05;16.30;99.90
5842;DHT22;2947;52.276;9.946;2022-10-16T08:45:44;16.40;99.90
5842;DHT22;2947;52.276;9.946;2022-10-16T08:48:30;16.60;99.90
5842;DHT22;2947;52.276;9.946;2022-10-16T08:51:02;16.60;99.90
5842;DHT22;2947;52.276;9.946;2022-10-16T08:53:34;16.60;99.90
5842;DHT22;2947;52.276;9.946;2022-10-16T08:56:10;16.70;99.90
5842;DHT22;2947;52.276;9.946;2022-10-16T08:58:36;16.70;99.90
5842;DHT22;2947;52.276;9.946;2022-10-16T09:01:04;16.60;99.90
5842;DHT22;2947;52.276;9.946;2022-10-16T09:06:48;16.40;99.90
5842;DHT22;2947;52.276;9.946;2022-10-16T09:17:44;15.70;99.90
5842;DHT22;2947;52.276;9.946;2022-10-16T09:23:29;16.30;99.90
5842;DHT22;2947;52.276;9.946;2022-10-16T09:25:58;16.50;99.90
5842;DHT22;2947;52.276;9.946;2022-10-16T09:28:24;16.60;99.90
5842;DHT22;2947;52.276;9.946;2022-10-16T09:30:50;16.70;99.90
5842;DHT22;2947;52.276;9.946;2022-10-16T09:33:19;16.80;99.90
5842;DHT22;2947;52.276;9.946;2022-10-16T09:35:49;16.90;99.90
5842;DHT22;2947;52.276;9.946;2022-10-16T09:38:31;17.00;99.90
5842;DHT22;2947;52.276;9.946;2022-10-16T09:41:00;17.10;99.90
5842;DHT22;2947;52.276;9.946;2022-10-16T09:46:33;17.40;99.90
5842;DHT22;2947;52.276;9.946;2022-10-16T09:49:02;17.40;99.90
5842;DHT22;2947;52.276;9.946;2022-10-16T09:51:34;17.50;99.90
5842;DHT22;2947;52.276;9.946;2022-10-16T09:56:35;17.60;99.90
5842;DHT22;2947;52.276;9.946;2022-10-16T09:59:10;17.70;99.90
5842;DHT22;2947;52.276;9.946;2022-10-16T10:04:19;17.90;99.90
5842;DHT22;2947;52.276;9.946;2022-10-16T10:06:48;17.90;99.90
5842;DHT22;2947;52.276;9.946;2022-10-16T10:09:32;17.90;99.90
5842;DHT22;2947;52.276;9.946;2022-10-16T10:12:03;17.80;99.90
5842;DHT22;2947;52.276;9.946;2022-10-16T10:14:50;17.90;99.90
5842;DHT22;2947;52.276;9.946;2022-10-16T10:17:20;18.00;99.90
5842;DHT22;2947;52.276;9.946;2022-10-16T10:19:55;18.00;99.90
5842;DHT22;2947;52.276;9.946;2022-10-16T10:33:45;18.30;99.90
5842;DHT22;2947;52.276;9.946;2022-10-16T10:39:22;18.20;99.90
5842;DHT22;2947;52.276;9.946;2022-10-16T10:42:00;18.30;99.90
5842;DHT22;2947;52.276;9.946;2022-10-16T10:48:12;18.20;99.90
5842;DHT22;2947;52.276;9.946;2022-10-16T10:50:57;18.10;99.90
5842;DHT22;2947;52.276;9.946;2022-10-16T10:53:49;18.00;99.90
5842;DHT22;2947;52.276;9.946;2022-10-16T10:56:57;18.10;99.90
5842;DHT22;2947;52.276;9.946;2022-10-16T11:01:55;18.40;99.90
5842;DHT22;2947;52.276;9.946;2022-10-16T11:07:30;18.40;99.90
5842;DHT22;2947;52.276;9.946;2022-10-16T11:10:42;18.30;99.90
5842;DHT22;2947;52.276;9.946;2022-10-16T11:12:55;18.30;99.90
5842;DHT22;2947;52.276;9.946;2022-10-16T11:15:31;18.30;99.90
5842;DHT22;2947;52.276;9.946;2022-10-16T11:18:07;18.50;99.90
5842;DHT22;2947;52.276;9.946;2022-10-16T11:20:47;18.60;99.90
5842;DHT22;2947;52.276;9.946;2022-10-16T11:23:22;18.80;99.90
5842;DHT22;2947;52.276;9.946;2022-10-16T11:25:51;19.00;99.90
5842;DHT22;2947;52.276;9.946;2022-10-16T11:31:08;19.30;99.90
5842;DHT22;2947;52.276;9.946;2022-10-16T11:36:38;19.70;99.90
5842;DHT22;2947;52.276;9.946;2022-10-16T11:39:24;19.80;99.90
5842;DHT22;2947;52.276;9.946;2022-10-16T11:41:55;19.80;99.90
5842;DHT22;2947;52.276;9.946;2022-10-16T11:44:31;19.90;99.90
5842;DHT22;2947;52.276;9.946;2022-10-16T11:47:15;20.00;99.90
5842;DHT22;2947;52.276;9.946;2022-10-16T11:50:38;20.10;99.90
5842;DHT22;2947;52.276;9.946;2022-10-16T11:53:21;20.20;99.90
5842;DHT22;2947;52.276;9.946;2022-10-16T11:55:56;20.20;99.90
5842;DHT22;2947;52.276;9.946;2022-10-16T11:58:24;20.30;99.90
5842;DHT22;2947;52.276;9.946;2022-10-16T12:06:31;20.50;99.90
5842;DHT22;2947;52.276;9.946;2022-10-16T12:09:26;20.70;99.90
5842;DHT22;2947;52.276;9.946;2022-10-16T12:11:54;20.80;99.90
5842;DHT22;2947;52.276;9.946;2022-10-16T12:14:33;20.80;99.90
5842;DHT22;2947;52.276;9.946;2022-10-16T12:17:24;20.90;99.90
5842;DHT22;2947;52.276;9.946;2022-10-16T12:22:41;20.90;99.90
5842;DHT22;2947;52.276;9.946;2022-10-16T12:25:22;21.00;99.90
5842;DHT22;2947;52.276;9.946;2022-10-16T12:30:26;21.20;99.90
5842;DHT22;2947;52.276;9.946;2022-10-16T12:33:00;21.30;99.90
5842;DHT22;2947;52.276;9.946;2022-10-16T12:35:34;21.30;99.90
5842;DHT22;2947;52.276;9.946;2022-10-16T12:38:51;21.30;99.90
5842;DHT22;2947;52.276;9.946;2022-10-16T12:41:33;21.30;99.90
5842;DHT22;2947;52.276;9.946;2022-10-16T12:44:01;21.30;99.90
5842;DHT22;2947;52.276;9.946;2022-10-16T12:51:53;21.40;99.90
5842;DHT22;2947;52.276;9.946;2022-10-16T12:54:37;21.50;99.90
5842;DHT22;2947;52.276;9.946;2022-10-16T13:09:53;21.40;99.90
5842;DHT22;2947;52.276;9.946;2022-10-16T13:21:20;21.00;99.90
5842;DHT22;2947;52.276;9.946;2022-10-16T13:24:08;20.90;99.90
5842;DHT22;2947;52.276;9.946;2022-10-16T13:29:54;20.90;99.90
5842;DHT22;2947;52.276;9.946;2022-10-16T13:32:26;20.90;99.90
5842;DHT22;2947;52.276;9.946;2022-10-16T13:34:52;21.20;99.90
5842;DHT22;2947;52.276;9.946;2022-10-16T13:37:22;20.80;99.90
5842;DHT22;2947;52.276;9.946;2022-10-16T13:39:49;20.70;99.90
5842;DHT22;2947;52.276;9.946;2022-10-16T13:42:26;20.70;99.90
5842;DHT22;2947;52.276;9.946;2022-10-16T13:44:55;20.60;99.90
5842;DHT22;2947;52.276;9.946;2022-10-16T13:47:26;20.50;99.90
5842;DHT22;2947;52.276;9.946;2022-10-16T13:50:04;20.50;99.90
5842;DHT22;2947;52.276;9.946;2022-10-16T13:52:34;20.40;99.90
5842;DHT22;2947;52.276;9.946;2022-10-16T13:55:00;20.40;99.90
5842;DHT22;2947;52.276;9.946;2022-10-16T13:57:26;20.30;99.90
5842;DHT22;2947;52.276;9.946;2022-10-16T13:59:52;20.30;99.90
5842;DHT22;2947;52.276;9.946;2022-10-16T14:04:58;20.30;99.90
5842;DHT22;2947;52.276;9.946;2022-10-16T14:07:32;20.30;99.90
5842;DHT22;2947;52.276;9.946;2022-10-16T14:10:06;20.30;99.90
5842;DHT22;2947;52.276;9.946;2022-10-16T14:12:34;20.40;99.90
5842;DHT22;2947;52.276;9.946;2022-10-16T14:15:00;20.40;99.90
5842;DHT22;2947;52.276;9.946;2022-10-16T14:17:28;20.30;99.90
5842;DHT22;2947;52.276;9.946;2022-10-16T14:19:58;20.30;99.90
5842;DHT22;2947;52.276;9.946;2022-10-16T14:22:41;20.20;99.90
5842;DHT22;2947;52.276;9.946;2022-10-16T14:28:01;20.20;99.90
5842;DHT22;2947;52.276;9.946;2022-10-16T14:30:28;20.10;99.90
5842;DHT22;2947;52.276;9.946;2022-10-16T14:32:59;20.30;99.90
5842;DHT22;2947;52.276;9.946;2022-10-16T14:35:34;20.10;99.90
5842;DHT22;2947;52.276;9.946;2022-10-16T14:38:03;20.10;99.90
5842;DHT22;2947;52.276;9.946;2022-10-16T14:40:35;20.00;99.90
5842;DHT22;2947;52.276;9.946;2022-10-16T14:43:03;20.10;99.90
5842;DHT22;2947;52.276;9.946;2022-10-16T14:45:32;20.00;99.90
5842;DHT22;2947;52.276;9.946;2022-10-16T14:48:04;20.30;99.90
5842;DHT22;2947;52.276;9.946;2022-10-16T14:50:31;20.00;99.90
5842;DHT22;2947;52.276;9.946;2022-10-16T14:52:58;19.90;99.90
5842;DHT22;2947;52.276;9.946;2022-10-16T14:55:25;19.90;99.90
5842;DHT22;2947;52.276;9.946;2022-10-16T14:57:51;19.90;99.90
5842;DHT22;2947;52.276;9.946;2022-10-16T15:00:22;19.70;99.90
5842;DHT22;2947;52.276;9.946;2022-10-16T15:02:49;19.70;99.90
5842;DHT22;2947;52.276;9.946;2022-10-16T15:05:20;19.70;99.90
5842;DHT22;2947;52.276;9.946;2022-10-16T15:07:48;19.60;99.90
5842;DHT22;2947;52.276;9.946;2022-10-16T15:10:16;19.60;99.90
5842;DHT22;2947;52.276;9.946;2022-10-16T15:12:42;19.50;99.90
5842;DHT22;2947;52.276;9.946;2022-10-16T15:15:31;19.50;99.90
5842;DHT22;2947;52.276;9.946;2022-10-16T15:17:59;19.40;99.90
5842;DHT22;2947;52.276;9.946;2022-10-16T15:20:28;19.40;99.90
5842;DHT22;2947;52.276;9.946;2022-10-16T15:22:57;19.30;99.90
5842;DHT22;2947;52.276;9.946;2022-10-16T15:25:27;19.30;99.90
5842;DHT22;2947;52.276;9.946;2022-10-16T15:27:57;19.30;99.90
5842;DHT22;2947;52.276;9.946;2022-10-16T15:30:24;19.20;99.90
5842;DHT22;2947;52.276;9.946;2022-10-16T15:32:49;19.20;99.90
5842;DHT22;2947;52.276;9.946;2022-10-16T15:35:15;19.10;99.90
5842;DHT22;2947;52.276;9.946;2022-10-16T15:37:41;19.10;99.90
5842;DHT22;2947;52.276;9.946;2022-10-16T15:40:09;19.00;99.90
5842;DHT22;2947;52.276;9.946;2022-10-16T15:42:35;19.00;99.90
5842;DHT22;2947;52.276;9.946;2022-10-16T15:45:01;18.90;99.90
5842;DHT22;2947;52.276;9.946;2022-10-16T15:47:29;18.90;99.90
5842;DHT22;2947;52.276;9.946;2022-10-16T15:49:56;18.80;99.90
5842;DHT22;2947;52.276;9.946;2022-10-16T15:52:22;18.90;99.90
5842;DHT22;2947;52.276;9.946;2022-10-16T15:54:47;18.90;99.90
5842;DHT22;2947;52.276;9.946;2022-10-16T15:57:13;18.80;99.90
5842;DHT22;2947;52.276;9.946;2022-10-16T15:59:39;18.80;99.90
5842;DHT22;2947;52.276;9.946;2022-10-16T16:02:05;18.80;99.90
5842;DHT22;2947;52.276;9.946;2022-10-16T16:04:31;18.80;99.90
5842;DHT22;2947;52.276;9.946;2022-10-16T16:06:57;18.70;99.90
5842;DHT22;2947;52.276;9.946;2022-10-16T16:09:22;18.60;99.90
5842;DHT22;2947;52.276;9.946;2022-10-16T16:11:49;18.60;99.90
5842;DHT22;2947;52.276;9.946;2022-10-16T16:14:16;18.60;99.90
5842;DHT22;2947;52.276;9.946;2022-10-16T16:16:42;18.50;99.90
5842;DHT22;2947;52.276;9.946;2022-10-16T16:19:08;18.40;99.90
5842;DHT22;2947;52.276;9.946;2022-10-16T16:21:35;18.40;99.90
5842;DHT22;2947;52.276;9.946;2022-10-16T16:24:00;18.40;99.90
5842;DHT22;2947;52.276;9.946;2022-10-16T16:26:33;18.20;99.90
5842;DHT22;2947;52.276;9.946;2022-10-16T16:29:02;18.20;99.90
5842;DHT22;2947;52.276;9.946;2022-10-16T16:31:29;18.50;99.90
5842;DHT22;2947;52.276;9.946;2022-10-16T16:33:56;18.10;99.90
5842;DHT22;2947;52.276;9.946;2022-10-16T16:36:24;18.10;99.90
5842;DHT22;2947;52.276;9.946;2022-10-16T16:38:50;18.00;99.90
5842;DHT22;2947;52.276;9.946;2022-10-16T16:41:34;18.10;99.90
5842;DHT22;2947;52.276;9.946;2022-10-16T16:44:05;17.90;99.90
5842;DHT22;2947;52.276;9.946;2022-10-16T16:46:33;17.90;99.90
5842;DHT22;2947;52.276;9.946;2022-10-16T16:49:00;17.80;99.90
5842;DHT22;2947;52.276;9.946;2022-10-16T16:51:26;17.70;99.90
5842;DHT22;2947;52.276;9.946;2022-10-16T16:53:53;17.70;99.90
5842;DHT22;2947;52.276;9.946;2022-10-16T16:56:20;17.80;99.90
5842;DHT22;2947;52.276;9.946;2022-10-16T16:58:47;17.50;99.90
5842;DHT22;2947;52.276;9.946;2022-10-16T17:01:15;17.50;99.90
5842;DHT22;2947;52.276;9.946;2022-10-16T17:03:43;17.40;99.90
5842;DHT22;2947;52.276;9.946;2022-10-16T17:06:13;17.30;99.90
5842;DHT22;2947;52.276;9.946;2022-10-16T17:08:42;17.30;99.90
5842;DHT22;2947;52.276;9.946;2022-10-16T17:11:13;17.30;99.90
5842;DHT22;2947;52.276;9.946;2022-10-16T17:13:40;17.80;99.90
5842;DHT22;2947;52.276;9.946;2022-10-16T17:16:06;17.60;99.90
5842;DHT22;2947;52.276;9.946;2022-10-16T17:18:33;17.30;99.90
5842;DHT22;2947;52.276;9.946;2022-10-16T17:21:01;17.40;99.90
5842;DHT22;2947;52.276;9.946;2022-10-16T17:23:28;17.30;99.90
5842;DHT22;2947;52.276;9.946;2022-10-16T17:25:54;17.40;99.90
5842;DHT22;2947;52.276;9.946;2022-10-16T17:28:20;17.40;99.90
5842;DHT22;2947;52.276;9.946;2022-10-16T17:30:46;17.30;99.90
5842;DHT22;2947;52.276;9.946;2022-10-16T17:33:12;17.30;99.90
5842;DHT22;2947;52.276;9.946;2022-10-16T17:35:45;17.30;99.90
5842;DHT22;2947;52.276;9.946;2022-10-16T17:38:13;17.40;99.90
5842;DHT22;2947;52.276;9.946;2022-10-16T17:40:39;17.40;99.90
5842;DHT22;2947;52.276;9.946;2022-10-16T17:43:05;17.30;99.90
5842;DHT22;2947;52.276;9.946;2022-10-16T17:45:36;17.30;99.90
5842;DHT22;2947;52.276;9.946;2022-10-16T17:48:02;17.30;99.90
5842;DHT22;2947;52.276;9.946;2022-10-16T17:50:28;17.20;99.90
5842;DHT22;2947;52.276;9.946;2022-10-16T17:52:54;17.10;99.90
5842;DHT22;2947;52.276;9.946;2022-10-16T17:55:19;17.20;99.90
5842;DHT22;2947;52.276;9.946;2022-10-16T17:57:45;17.10;99.90
5842;DHT22;2947;52.276;9.946;2022-10-16T18:00:11;17.10;99.90
5842;DHT22;2947;52.276;9.946;2022-10-16T18:02:37;17.10;99.90
5842;DHT22;2947;52.276;9.946;2022-10-16T18:05:09;17.00;99.90
5842;DHT22;2947;52.276;9.946;2022-10-16T18:07:36;17.00;99.90
5842;DHT22;2947;52.276;9.946;2022-10-16T18:10:02;16.90;99.90
5842;DHT22;2947;52.276;9.946;2022-10-16T18:12:32;16.90;99.90
5842;DHT22;2947;52.276;9.946;2022-10-16T18:14:58;16.90;99.90
5842;DHT22;2947;52.276;9.946;2022-10-16T18:17:24;16.90;99.90